Aviation Digital Data Service (ADDS)

Output produced by METARs form (1215 UTC 25 June 2017)
found at http://aviationweather.gov/adds/metars/
 
KGSO 251135Z 2512/2612 32003KT P6SM BKN060 
     FM251500 31008KT P6SM SCT050 
     FM252300 33004KT P6SM SKC